createdAt,value
2022-10-05T00:01:45.123Z,101686.75
2022-10-05T00:04:17.053Z,101689.72
2022-10-05T00:06:46.230Z,101678.50
2022-10-05T00:09:17.656Z,101684.13
2022-10-05T00:11:45.279Z,101676.91
2022-10-05T00:14:19.228Z,101683.41
2022-10-05T00:16:46.824Z,101668.06
2022-10-05T00:19:20.727Z,101661.50
2022-10-05T00:21:48.109Z,101661.97
2022-10-05T00:24:18.980Z,101655.00
2022-10-05T00:26:46.580Z,101648.53
2022-10-05T00:29:21.521Z,101652.56
2022-10-05T00:31:49.858Z,101647.66
2022-10-05T00:34:17.891Z,101641.16
2022-10-05T00:36:45.883Z,101650.09
2022-10-05T00:39:13.391Z,101642.16
2022-10-05T00:41:59.938Z,101645.38
2022-10-05T00:44:41.754Z,101641.34
2022-10-05T00:47:25.746Z,101636.44
2022-10-05T00:50:14.266Z,101625.75
2022-10-05T00:52:50.118Z,101616.47
2022-10-05T00:55:27.550Z,101615.78
2022-10-05T00:58:07.082Z,101612.53
2022-10-05T01:00:46.924Z,101611.53
2022-10-05T01:03:18.713Z,101616.84
2022-10-05T01:05:56.916Z,101619.63
2022-10-05T01:08:36.833Z,101617.63
2022-10-05T01:11:09.357Z,101618.84
2022-10-05T01:13:44.984Z,101624.69
2022-10-05T01:16:17.274Z,101616.84
2022-10-05T01:18:52.077Z,101614.69
2022-10-05T01:21:21.540Z,101615.50
2022-10-05T01:24:18.215Z,101613.13
2022-10-05T01:27:15.647Z,101607.97
2022-10-05T01:29:49.550Z,101602.94
2022-10-05T01:32:25.081Z,101594.97
2022-10-05T01:34:59.778Z,101591.63
2022-10-05T01:37:33.396Z,101591.81
2022-10-05T01:40:08.193Z,101590.94
2022-10-05T01:42:48.490Z,101585.31
2022-10-05T01:45:28.160Z,101584.72
2022-10-05T01:48:07.156Z,101574.91
2022-10-05T01:50:47.161Z,101569.31
2022-10-05T01:53:21.554Z,101571.66
2022-10-05T01:55:56.377Z,101566.81
2022-10-05T01:58:33.755Z,101565.25
2022-10-05T02:01:07.342Z,101562.91
2022-10-05T02:07:45.707Z,101555.06
2022-10-05T02:10:20.383Z,101553.16
2022-10-05T02:12:51.170Z,101552.50
2022-10-05T02:15:25.229Z,101549.69
2022-10-05T02:17:58.952Z,101544.50
2022-10-05T02:20:30.384Z,101539.81
2022-10-05T02:23:05.612Z,101539.69
2022-10-05T02:25:36.611Z,101540.69
2022-10-05T02:28:08.174Z,101531.28
2022-10-05T02:30:53.885Z,101514.94
2022-10-05T02:33:27.749Z,101533.41
2022-10-05T02:36:00.244Z,101521.44
2022-10-05T02:38:36.550Z,101522.78
2022-10-05T02:41:13.125Z,101520.09
2022-10-05T02:43:49.596Z,101518.97
2022-10-05T02:46:27.318Z,101520.31
2022-10-05T02:49:10.038Z,101515.84
2022-10-05T02:51:45.433Z,101509.00
2022-10-05T02:54:22.614Z,101503.72
2022-10-05T02:56:57.425Z,101505.38
2022-10-05T02:59:34.464Z,101505.19
2022-10-05T03:02:11.984Z,101491.06
2022-10-05T03:04:51.892Z,101488.16
2022-10-05T03:07:24.718Z,101484.59
2022-10-05T03:10:01.609Z,101483.34
2022-10-05T03:12:47.598Z,101492.66
2022-10-05T03:15:48.608Z,101477.75
2022-10-05T03:18:30.497Z,101469.69
2022-10-05T03:21:09.248Z,101477.06
2022-10-05T03:23:50.968Z,101468.09
2022-10-05T03:26:32.126Z,101455.31
2022-10-05T03:29:06.426Z,101459.38
2022-10-05T03:31:43.586Z,101468.19
2022-10-05T03:34:19.672Z,101465.28
2022-10-05T03:36:55.971Z,101462.38
2022-10-05T03:39:30.557Z,101476.28
2022-10-05T03:42:07.795Z,101462.81
2022-10-05T03:44:45.663Z,101470.00
2022-10-05T03:47:24.655Z,101464.66
2022-10-05T03:50:19.406Z,101459.34
2022-10-05T03:52:55.771Z,101446.81
2022-10-05T03:55:30.355Z,101448.38
2022-10-05T03:58:07.626Z,101450.72
2022-10-05T04:00:37.595Z,101442.19
2022-10-05T04:03:14.824Z,101443.56
2022-10-05T04:05:46.660Z,101437.50
2022-10-05T04:08:21.534Z,101451.84
2022-10-05T04:10:51.949Z,101437.03
2022-10-05T04:13:29.152Z,101446.25
2022-10-05T04:16:01.653Z,101438.63
2022-10-05T04:18:34.694Z,101429.88
2022-10-05T04:21:08.442Z,101425.16
2022-10-05T04:23:47.911Z,101423.81
2022-10-05T04:26:24.734Z,101430.00
2022-10-05T04:28:57.323Z,101421.25
2022-10-05T04:31:39.755Z,101421.13
2022-10-05T04:34:17.501Z,101428.44
2022-10-05T04:36:54.440Z,101417.13
2022-10-05T04:39:34.891Z,101414.97
2022-10-05T04:42:10.718Z,101416.22
2022-10-05T04:45:05.242Z,101422.25
2022-10-05T04:48:05.074Z,101415.63
2022-10-05T04:50:45.326Z,101411.38
2022-10-05T04:53:25.125Z,101408.47
2022-10-05T04:56:01.111Z,101406.25
2022-10-05T04:58:44.592Z,101411.72
2022-10-05T05:01:30.183Z,101406.34
2022-10-05T05:04:26.894Z,101418.78
2022-10-05T05:07:03.652Z,101422.25
2022-10-05T05:10:01.664Z,101424.81
2022-10-05T05:12:41.266Z,101425.38
2022-10-05T05:15:40.905Z,101437.81
2022-10-05T05:18:37.748Z,101437.50
2022-10-05T05:21:14.362Z,101441.63
2022-10-05T05:23:50.057Z,101443.66
2022-10-05T05:26:28.768Z,101437.28
2022-10-05T05:29:08.171Z,101444.13
2022-10-05T05:31:45.141Z,101448.69
2022-10-05T05:34:28.013Z,101447.44
2022-10-05T05:37:02.201Z,101446.69
2022-10-05T05:39:38.701Z,101452.19
2022-10-05T05:42:17.888Z,101453.28
2022-10-05T05:44:51.500Z,101449.94
2022-10-05T05:47:26.341Z,101446.56
2022-10-05T05:50:07.449Z,101449.38
2022-10-05T05:52:41.611Z,101449.59
2022-10-05T05:55:17.698Z,101446.03
2022-10-05T05:57:49.981Z,101439.63
2022-10-05T06:00:21.874Z,101448.59
2022-10-05T06:03:04.205Z,101445.25
2022-10-05T06:05:38.143Z,101449.16
2022-10-05T06:08:15.390Z,101437.59
2022-10-05T06:10:48.751Z,101435.94
2022-10-05T06:13:21.054Z,101440.75
2022-10-05T06:15:54.155Z,101440.75
2022-10-05T06:18:22.870Z,101446.81
2022-10-05T06:20:59.162Z,101431.88
2022-10-05T06:23:35.449Z,101444.78
2022-10-05T06:26:14.622Z,101436.91
2022-10-05T06:28:50.521Z,101453.84
2022-10-05T06:31:30.435Z,101451.63
2022-10-05T06:34:10.673Z,101443.72
2022-10-05T06:36:43.928Z,101451.72
2022-10-05T06:39:33.556Z,101452.38
2022-10-05T06:42:15.194Z,101443.50
2022-10-05T06:45:15.007Z,101451.81
2022-10-05T06:48:05.043Z,101428.94
2022-10-05T06:51:09.731Z,101436.59
2022-10-05T06:53:54.217Z,101430.84
2022-10-05T06:56:31.232Z,101441.50
2022-10-05T06:59:05.953Z,101437.00
2022-10-05T07:01:44.763Z,101438.66
2022-10-05T07:04:43.759Z,101439.78
2022-10-05T07:07:21.034Z,101443.38
2022-10-05T07:10:00.130Z,101453.66
2022-10-05T07:12:39.709Z,101453.75
2022-10-05T07:15:29.198Z,101458.38
2022-10-05T07:18:09.268Z,101451.75
2022-10-05T07:20:49.071Z,101455.91
2022-10-05T07:23:29.370Z,101446.69
2022-10-05T07:26:04.621Z,101445.44
2022-10-05T07:28:39.013Z,101449.88
2022-10-05T07:31:13.240Z,101438.84
2022-10-05T07:33:46.516Z,101456.16
2022-10-05T07:36:22.599Z,101449.22
2022-10-05T07:38:58.845Z,101454.94
2022-10-05T07:41:36.954Z,101448.00
2022-10-05T07:44:13.254Z,101440.78
2022-10-05T07:46:50.720Z,101446.28
2022-10-05T07:49:26.432Z,101443.94
2022-10-05T07:51:59.504Z,101450.22
2022-10-05T07:54:34.283Z,101446.81
2022-10-05T07:57:13.041Z,101445.38
2022-10-05T07:59:47.941Z,101445.91
2022-10-05T08:02:25.884Z,101443.44
2022-10-05T08:05:00.167Z,101443.44
2022-10-05T08:07:31.354Z,101442.09
2022-10-05T08:10:13.756Z,101437.25
2022-10-05T08:12:51.816Z,101435.78
2022-10-05T08:15:23.197Z,101427.72
2022-10-05T08:17:55.040Z,101429.28
2022-10-05T08:20:32.061Z,101429.31
2022-10-05T08:23:05.211Z,101427.41
2022-10-05T08:25:41.744Z,101422.75
2022-10-05T08:28:17.333Z,101425.66
2022-10-05T08:30:56.967Z,101418.00
2022-10-05T08:33:26.740Z,101413.06
2022-10-05T08:36:03.350Z,101413.19
2022-10-05T08:38:33.605Z,101416.69
2022-10-05T08:41:29.277Z,101414.03
2022-10-05T08:44:48.053Z,101414.22
2022-10-05T08:47:26.225Z,101405.31
2022-10-05T08:50:17.801Z,101393.91
2022-10-05T08:53:17.416Z,101405.00
2022-10-05T08:55:58.858Z,101409.38
2022-10-05T08:59:08.933Z,101399.69
2022-10-05T09:01:56.414Z,101410.28
2022-10-05T09:04:41.698Z,101406.38
2022-10-05T09:07:37.303Z,101407.94
2022-10-05T09:10:26.194Z,101402.78
2022-10-05T09:13:24.675Z,101396.22
2022-10-05T09:16:24.632Z,101399.97
2022-10-05T09:19:24.970Z,101395.75
2022-10-05T09:21:57.437Z,101408.72
2022-10-05T09:24:39.589Z,101403.91
2022-10-05T09:27:12.617Z,101394.50
2022-10-05T09:30:04.320Z,101408.13
2022-10-05T09:33:19.705Z,101394.50
2022-10-05T09:36:14.102Z,101398.41
2022-10-05T09:39:09.307Z,101391.25
2022-10-05T09:42:10.253Z,101385.19
2022-10-05T09:45:15.565Z,101388.13
2022-10-05T09:48:30.375Z,101384.38
2022-10-05T09:51:48.481Z,101384.09
2022-10-05T09:55:03.073Z,101381.59
2022-10-05T09:58:06.187Z,101370.66
2022-10-05T10:01:09.480Z,101373.63
2022-10-05T10:04:34.618Z,101387.53
2022-10-05T10:07:39.523Z,101372.25
2022-10-05T10:10:46.901Z,101369.13
2022-10-05T10:13:30.283Z,101368.75
2022-10-05T10:16:11.774Z,101370.78
2022-10-05T10:19:12.643Z,101367.84
2022-10-05T10:22:10.119Z,101366.91
2022-10-05T10:24:55.232Z,101359.25
2022-10-05T10:27:36.608Z,101352.69
2022-10-05T10:30:46.560Z,101347.59
2022-10-05T10:33:36.333Z,101337.22
2022-10-05T10:36:09.531Z,101352.75
2022-10-05T10:38:39.971Z,101340.72
2022-10-05T10:41:45.940Z,101341.72
2022-10-05T10:45:00.779Z,101336.22
2022-10-05T10:47:49.189Z,101340.00
2022-10-05T10:51:06.449Z,101337.50
2022-10-05T10:54:12.996Z,101333.41
2022-10-05T10:56:58.894Z,101330.78
2022-10-05T10:59:55.783Z,101348.59
2022-10-05T11:02:36.088Z,101337.31
2022-10-05T11:05:48.020Z,101331.97
2022-10-05T11:08:45.814Z,101335.69
2022-10-05T11:12:10.216Z,101325.59
2022-10-05T11:15:18.299Z,101318.03
2022-10-05T11:18:15.206Z,101317.69
2022-10-05T11:21:08.864Z,101317.81
2022-10-05T11:24:08.512Z,101318.25
2022-10-05T11:26:53.801Z,101313.25
2022-10-05T11:29:55.707Z,101302.75
2022-10-05T11:33:19.165Z,101297.38
2022-10-05T11:36:11.601Z,101309.41
2022-10-05T11:39:10.037Z,101314.31
2022-10-05T11:42:11.604Z,101307.59
2022-10-05T11:45:16.352Z,101296.41
2022-10-05T11:48:01.961Z,101310.59
2022-10-05T11:50:35.197Z,101289.56
2022-10-05T11:53:10.955Z,101301.22
2022-10-05T11:55:45.478Z,101288.94
2022-10-05T11:58:19.964Z,101282.16
2022-10-05T12:00:56.825Z,101281.75
2022-10-05T12:03:41.539Z,101273.72
2022-10-05T12:06:41.057Z,101278.13
2022-10-05T12:09:22.500Z,101262.41
2022-10-05T12:12:03.249Z,101269.13
2022-10-05T12:14:41.115Z,101258.09
2022-10-05T12:17:20.172Z,101254.53
2022-10-05T12:19:51.510Z,101256.63
2022-10-05T12:22:22.534Z,101254.91
2022-10-05T12:25:17.859Z,101245.31
2022-10-05T12:27:49.599Z,101244.09
2022-10-05T12:30:25.466Z,101249.97
2022-10-05T12:33:02.459Z,101243.94
2022-10-05T12:35:50.425Z,101243.75
2022-10-05T12:38:26.523Z,101232.84
2022-10-05T12:41:03.088Z,101222.19
2022-10-05T12:43:42.273Z,101219.38
2022-10-05T12:46:21.653Z,101224.25
2022-10-05T12:49:05.187Z,101221.53
2022-10-05T12:51:40.821Z,101205.59
2022-10-05T12:54:20.564Z,101211.13
2022-10-05T12:56:53.932Z,101207.94
2022-10-05T12:59:34.183Z,101209.97
2022-10-05T13:02:10.446Z,101206.66
2022-10-05T13:04:43.640Z,101200.72
2022-10-05T13:07:34.372Z,101219.69
2022-10-05T13:10:14.865Z,101223.31
2022-10-05T13:12:48.458Z,101213.88
2022-10-05T13:15:23.872Z,101200.72
2022-10-05T13:18:02.844Z,101204.66
2022-10-05T13:20:34.770Z,101210.66
2022-10-05T13:23:09.633Z,101219.31
2022-10-05T13:25:43.461Z,101218.84
2022-10-05T13:28:17.049Z,101216.88
2022-10-05T13:30:59.323Z,101227.28
2022-10-05T13:33:38.937Z,101224.81
2022-10-05T13:36:13.546Z,101220.75
2022-10-05T13:38:51.780Z,101210.78
2022-10-05T13:41:28.686Z,101217.09
2022-10-05T13:44:07.282Z,101220.13
2022-10-05T13:46:44.749Z,101212.84
2022-10-05T13:49:21.196Z,101218.47
2022-10-05T13:51:56.801Z,101226.19
2022-10-05T13:54:32.213Z,101218.28
2022-10-05T13:57:11.024Z,101231.16
2022-10-05T13:59:45.364Z,101228.75
2022-10-05T14:02:20.652Z,101229.44
2022-10-05T14:04:49.667Z,101229.44
2022-10-05T14:07:30.039Z,101229.16
2022-10-05T14:09:58.662Z,101235.66
2022-10-05T14:12:27.338Z,101232.03
2022-10-05T14:14:56.101Z,101228.94
2022-10-05T14:17:40.672Z,101246.84
2022-10-05T14:20:21.555Z,101232.25
2022-10-05T14:22:52.952Z,101223.84
2022-10-05T14:25:20.866Z,101234.47
2022-10-05T14:27:51.813Z,101229.56
2022-10-05T14:30:22.408Z,101228.41
2022-10-05T14:32:53.486Z,101228.31
2022-10-05T14:35:21.207Z,101220.13
2022-10-05T14:37:54.754Z,101214.31
2022-10-05T14:40:25.975Z,101203.88
2022-10-05T14:42:53.961Z,101214.25
2022-10-05T14:45:23.043Z,101214.06
2022-10-05T14:47:54.441Z,101212.13
2022-10-05T14:50:24.300Z,101207.81
2022-10-05T14:53:04.373Z,101215.22
2022-10-05T14:55:59.947Z,101208.22
2022-10-05T14:58:55.731Z,101193.13
2022-10-05T15:01:27.209Z,101192.88
2022-10-05T15:04:08.297Z,101184.25
2022-10-05T15:06:38.364Z,101177.22
2022-10-05T15:09:24.675Z,101180.06
2022-10-05T15:11:55.726Z,101184.25
2022-10-05T15:14:27.015Z,101178.38
2022-10-05T15:16:59.699Z,101176.81
2022-10-05T15:19:42.362Z,101178.53
2022-10-05T15:22:22.999Z,101177.13
2022-10-05T15:25:00.371Z,101172.16
2022-10-05T15:27:35.150Z,101177.50
2022-10-05T15:30:08.530Z,101168.31
2022-10-05T15:32:47.832Z,101168.25
2022-10-05T15:35:36.187Z,101162.03
2022-10-05T15:38:13.470Z,101157.81
2022-10-05T15:40:46.365Z,101159.34
2022-10-05T15:43:17.823Z,101162.91
2022-10-05T15:45:55.603Z,101168.97
2022-10-05T15:48:28.640Z,101150.91
2022-10-05T15:51:08.054Z,101159.91
2022-10-05T15:53:43.262Z,101150.69
2022-10-05T15:56:19.198Z,101151.44
2022-10-05T15:58:52.931Z,101158.22
2022-10-05T16:01:27.806Z,101160.78
2022-10-05T16:04:03.954Z,101161.19
2022-10-05T16:06:42.140Z,101164.22
2022-10-05T16:09:22.456Z,101159.03
2022-10-05T16:12:02.095Z,101156.56
2022-10-05T16:14:48.432Z,101165.91
2022-10-05T16:17:28.480Z,101166.50
2022-10-05T16:20:08.524Z,101178.53
2022-10-05T16:22:43.708Z,101181.38
2022-10-05T16:25:19.647Z,101187.09
2022-10-05T16:28:04.557Z,101178.31
2022-10-05T16:30:45.192Z,101180.97
2022-10-05T16:33:18.453Z,101188.88
2022-10-05T16:35:54.760Z,101189.72
2022-10-05T16:38:32.531Z,101200.56
2022-10-05T16:41:06.181Z,101189.09
2022-10-05T16:43:44.569Z,101199.50
2022-10-05T16:46:22.476Z,101203.91
2022-10-05T16:48:58.639Z,101212.06
2022-10-05T16:51:31.233Z,101207.97
2022-10-05T16:54:10.622Z,101214.19
2022-10-05T16:56:42.071Z,101209.53
2022-10-05T16:59:41.078Z,101220.06
2022-10-05T17:02:14.987Z,101222.97
2022-10-05T17:04:55.332Z,101208.47
2022-10-05T17:07:36.264Z,101218.00
2022-10-05T17:10:48.417Z,101220.31
2022-10-05T17:13:30.506Z,101222.53
2022-10-05T17:16:07.900Z,101214.78
2022-10-05T17:19:20.605Z,101215.16
2022-10-05T17:21:56.282Z,101221.19
2022-10-05T17:24:54.903Z,101214.56
2022-10-05T17:27:33.522Z,101212.03
2022-10-05T17:30:37.227Z,101217.28
2022-10-05T17:33:19.537Z,101216.22
2022-10-05T17:35:55.895Z,101221.03
2022-10-05T17:38:40.654Z,101220.47
2022-10-05T17:41:19.851Z,101223.59
2022-10-05T17:44:22.898Z,101225.63
2022-10-05T17:46:52.563Z,101228.31
2022-10-05T17:49:25.468Z,101225.00
2022-10-05T17:51:58.752Z,101228.91
2022-10-05T17:54:29.770Z,101230.47
2022-10-05T17:57:20.344Z,101232.97
2022-10-05T17:59:59.043Z,101225.19
2022-10-05T18:02:40.518Z,101238.22
2022-10-05T18:05:21.764Z,101226.78
2022-10-05T18:08:28.940Z,101231.81
2022-10-05T18:11:12.269Z,101237.63
2022-10-05T18:13:43.723Z,101245.97
2022-10-05T18:16:13.377Z,101230.38
2022-10-05T18:18:56.848Z,101232.78
2022-10-05T18:21:31.594Z,101237.34
2022-10-05T18:24:03.167Z,101236.75
2022-10-05T18:26:39.285Z,101223.75
2022-10-05T18:29:22.138Z,101233.56
2022-10-05T18:31:59.369Z,101235.06
2022-10-05T18:34:34.169Z,101243.81
2022-10-05T18:37:21.050Z,101239.34
2022-10-05T18:40:08.918Z,101240.34
2022-10-05T18:42:43.706Z,101240.03
2022-10-05T18:45:23.566Z,101252.22
2022-10-05T18:48:05.859Z,101249.88
2022-10-05T18:50:40.560Z,101245.91
2022-10-05T18:53:20.488Z,101251.84
2022-10-05T18:55:55.758Z,101245.59
2022-10-05T18:58:31.875Z,101254.19
2022-10-05T19:01:30.418Z,101250.00
2022-10-05T19:04:09.042Z,101243.69
2022-10-05T19:06:50.124Z,101249.34
2022-10-05T19:09:33.706Z,101259.22
2022-10-05T19:12:10.589Z,101264.13
2022-10-05T19:14:48.620Z,101261.78
2022-10-05T19:17:23.904Z,101256.84
2022-10-05T19:20:15.205Z,101266.09
2022-10-05T19:22:54.581Z,101274.69
2022-10-05T19:25:37.199Z,101267.94
2022-10-05T19:28:15.146Z,101270.78
2022-10-05T19:30:53.790Z,101276.34
2022-10-05T19:33:32.162Z,101288.22
2022-10-05T19:36:14.443Z,101295.13
2022-10-05T19:38:53.536Z,101296.41
2022-10-05T19:41:29.313Z,101300.22
2022-10-05T19:44:11.714Z,101302.47
2022-10-05T19:46:57.407Z,101305.56
2022-10-05T19:49:42.028Z,101309.00
2022-10-05T19:52:19.369Z,101308.25
2022-10-05T19:54:47.187Z,101302.59
2022-10-05T19:57:17.016Z,101305.69
2022-10-05T19:59:47.873Z,101319.53
2022-10-05T20:02:17.096Z,101317.47
2022-10-05T20:04:46.583Z,101321.69
2022-10-05T20:07:17.664Z,101321.69
2022-10-05T20:09:55.890Z,101328.09
2022-10-05T20:12:49.118Z,101333.84
2022-10-05T20:15:18.679Z,101364.22
2022-10-05T20:17:45.885Z,101353.56
2022-10-05T20:20:35.304Z,101340.50
2022-10-05T20:23:23.948Z,101347.31
2022-10-05T20:25:52.141Z,101341.84
2022-10-05T20:28:30.701Z,101342.81
2022-10-05T20:30:58.482Z,101351.16
2022-10-05T20:33:25.973Z,101346.31
2022-10-05T20:35:55.230Z,101367.97
2022-10-05T20:38:23.913Z,101362.19
2022-10-05T20:40:51.174Z,101350.13
2022-10-05T20:43:18.366Z,101350.75
2022-10-05T20:45:45.597Z,101364.84
2022-10-05T20:48:14.024Z,101352.59
2022-10-05T20:50:41.249Z,101359.50
2022-10-05T20:53:11.714Z,101363.00
2022-10-05T20:55:40.549Z,101369.59
2022-10-05T20:58:07.855Z,101357.03
2022-10-05T21:00:35.168Z,101354.88
2022-10-05T21:03:02.497Z,101357.72
2022-10-05T21:05:29.925Z,101368.22
2022-10-05T21:07:57.224Z,101364.31
2022-10-05T21:10:24.466Z,101357.09
2022-10-05T21:12:53.011Z,101350.69
2022-10-05T21:15:20.291Z,101353.22
2022-10-05T21:17:47.546Z,101351.28
2022-10-05T21:20:14.900Z,101355.84
2022-10-05T21:22:42.230Z,101359.16
2022-10-05T21:25:09.632Z,101350.25
2022-10-05T21:27:36.912Z,101358.41
2022-10-05T21:30:06.911Z,101363.22
2022-10-05T21:32:34.180Z,101361.19
2022-10-05T21:35:01.435Z,101362.56
2022-10-05T21:37:28.581Z,101378.41
2022-10-05T21:39:55.985Z,101371.50
2022-10-05T21:42:23.666Z,101367.06
2022-10-05T21:44:50.917Z,101368.63
2022-10-05T21:47:19.542Z,101372.53
2022-10-05T21:49:46.799Z,101378.16
2022-10-05T21:52:14.029Z,101390.25
2022-10-05T21:54:41.234Z,101375.97
2022-10-05T21:57:11.454Z,101389.56
2022-10-05T21:59:40.175Z,101395.72
2022-10-05T22:02:07.455Z,101386.75
2022-10-05T22:04:36.140Z,101402.63
2022-10-05T22:07:14.023Z,101397.88
2022-10-05T22:09:41.256Z,101408.41
2022-10-05T22:12:08.442Z,101414.03
2022-10-05T22:14:35.616Z,101436.78
2022-10-05T22:17:02.920Z,101477.22
2022-10-05T22:19:30.114Z,101513.66
2022-10-05T22:21:58.686Z,101512.53
2022-10-05T22:24:25.891Z,101506.66
2022-10-05T22:26:53.220Z,101548.09
2022-10-05T22:29:21.045Z,101558.53
2022-10-05T22:31:49.154Z,101568.34
2022-10-05T22:34:16.885Z,101583.28
2022-10-05T22:36:44.213Z,101585.19
2022-10-05T22:39:13.006Z,101600.91
2022-10-05T22:41:40.204Z,101623.59
2022-10-05T22:44:07.495Z,101629.50
2022-10-05T22:46:34.803Z,101674.09
2022-10-05T22:49:01.975Z,101658.81
2022-10-05T22:51:29.221Z,101670.94
2022-10-05T22:53:56.422Z,101689.69
2022-10-05T22:56:25.061Z,101696.19
2022-10-05T22:58:52.553Z,101695.50
2022-10-05T23:01:20.275Z,101714.28
2022-10-05T23:03:47.932Z,101734.91
2022-10-05T23:06:16.750Z,101744.16
2022-10-05T23:08:44.738Z,101745.72
2022-10-05T23:11:14.779Z,101739.28
2022-10-05T23:13:43.757Z,101732.81
2022-10-05T23:16:12.897Z,101747.50
2022-10-05T23:18:40.427Z,101743.91
2022-10-05T23:21:08.995Z,101725.16
2022-10-05T23:23:37.188Z,101714.59
2022-10-05T23:26:06.202Z,101721.13
2022-10-05T23:28:34.126Z,101723.69
2022-10-05T23:31:05.110Z,101719.22
2022-10-05T23:33:33.104Z,101708.00
2022-10-05T23:36:01.231Z,101708.09
2022-10-05T23:38:29.187Z,101693.72
2022-10-05T23:40:56.839Z,101687.66
2022-10-05T23:43:24.518Z,101680.03
2022-10-05T23:45:51.732Z,101694.06
2022-10-05T23:48:20.629Z,101676.53
2022-10-05T23:50:49.229Z,101668.56
2022-10-05T23:53:17.222Z,101675.56
2022-10-05T23:55:44.782Z,101686.22
2022-10-05T23:58:12.089Z,101682.84
